Time;durP1;ratioP1;P1;durP2;ratioP2;P2;SDS_P1;SDS_P2;PMS_P1;PMS_P2;Temp;Humidity;BMP_temperature;BMP_pressure;BME280_temperature;BME280_humidity;BME280_pressure;Samples;Min_cycle;Max_cycle;Signal;HPM_P1;HPM_P2
2023/06/22 00:01:29;;;;;;;7.93;4.63;;;16.00;1.00;;;;;;5093373;28;20174;-69
2023/06/22 00:03:55;;;;;;;4.70;3.90;;;16.00;1.00;;;;;;5076192;28;20519;-69
2023/06/22 00:06:42;;;;;;;5.47;4.27;;;15.90;1.00;;;;;;5094400;28;20502;-69
2023/06/22 00:09:10;;;;;;;4.77;4.37;;;15.90;1.00;;;;;;5095074;28;20404;-69
2023/06/22 00:11:36;;;;;;;4.53;4.13;;;15.80;1.00;;;;;;5093805;28;20996;-71
2023/06/22 00:14:03;;;;;;;4.90;4.30;;;15.70;1.00;;;;;;5093869;28;20519;-69
2023/06/22 00:16:32;;;;;;;6.23;4.40;;;15.70;1.00;;;;;;5094793;28;20407;-69
2023/06/22 00:19:10;;;;;;;;;;;;;;;;;;;;;
2023/06/22 00:21:37;;;;;;;4.83;3.97;;;15.60;1.00;;;;;;5093730;28;20407;-69
2023/06/22 00:24:03;;;;;;;4.33;4.03;;;15.50;1.00;;;;;;5076347;28;20438;-69
2023/06/22 00:26:32;;;;;;;5.40;4.90;;;15.50;1.00;;;;;;5093880;28;20462;-69
2023/06/22 00:28:58;;;;;;;4.53;4.13;;;15.50;1.00;;;;;;5094213;28;20392;-70
2023/06/22 00:31:26;;;;;;;4.40;4.00;;;15.50;1.00;;;;;;5093696;28;20795;-69
2023/06/22 00:33:52;;;;;;;4.10;3.73;;;15.40;1.00;;;;;;5092788;28;20482;-69
2023/06/22 00:36:19;;;;;;;5.33;3.43;;;15.30;1.00;;;;;;5094106;28;20428;-70
2023/06/22 00:38:44;;;;;;;4.73;4.27;;;15.20;1.00;;;;;;5093659;28;20630;-69
2023/06/22 00:41:10;;;;;;;5.33;3.43;;;15.20;1.00;;;;;;5093558;28;20404;-69
2023/06/22 00:43:38;;;;;;;4.50;4.10;;;15.20;1.00;;;;;;5094325;28;20416;-69
2023/06/22 00:46:04;;;;;;;5.53;4.30;;;15.20;1.00;;;;;;5094349;28;20200;-69
2023/06/22 00:48:33;;;;;;;4.53;4.13;;;15.20;1.00;;;;;;5080471;28;20432;-69
2023/06/22 00:50:59;;;;;;;4.27;3.97;;;15.20;1.00;;;;;;5064648;28;20917;-69
2023/06/22 00:53:25;;;;;;;4.77;4.30;;;15.20;1.00;;;;;;5066633;28;20948;-69
2023/06/22 00:55:51;;;;;;;4.20;3.80;;;15.20;1.00;;;;;;5075370;28;20419;-69
2023/06/22 00:58:21;;;;;;;9.40;5.17;;;15.20;1.00;;;;;;5079784;28;20428;-69
2023/06/22 01:00:48;;;;;;;7.57;4.07;;;15.20;1.00;;;;;;5075898;28;20534;-69
2023/06/22 01:03:14;;;;;;;4.97;4.50;;;15.20;1.00;;;;;;5092610;28;20544;-69
2023/06/22 01:05:40;;;;;;;5.43;4.20;;;15.20;1.00;;;;;;5093840;28;20962;-70
2023/06/22 01:08:41;;;;;;;9.53;4.97;;;15.30;1.00;;;;;;5093226;28;20515;-69
2023/06/22 01:11:13;;;;;;;5.10;4.37;;;15.20;1.00;;;;;;5092614;28;20441;-69
2023/06/22 01:13:53;;;;;;;4.70;4.30;;;15.20;1.00;;;;;;5073686;28;20471;-70
2023/06/22 01:16:31;;;;;;;8.50;4.47;;;15.20;1.00;;;;;;5081599;28;20833;-69
2023/06/22 01:19:05;;;;;;;5.10;4.43;;;15.10;1.00;;;;;;5093736;28;20395;-69
2023/06/22 01:21:32;;;;;;;5.73;4.07;;;15.10;1.00;;;;;;5088295;28;20434;-69
2023/06/22 01:24:44;;;;;;;5.60;5.10;;;14.90;1.00;;;;;;5075492;28;20480;-69
2023/06/22 01:27:32;;;;;;;5.43;4.37;;;14.90;1.00;;;;;;5075065;28;20424;-69
2023/06/22 01:30:01;;;;;;;5.53;4.80;;;14.90;1.00;;;;;;5074559;28;20422;-69
2023/06/22 01:32:33;;;;;;;5.03;4.50;;;14.80;1.00;;;;;;5091987;28;20401;-70
2023/06/22 01:35:12;;;;;;;5.50;5.00;;;14.70;1.00;;;;;;5092311;28;20431;-69
2023/06/22 01:37:39;;;;;;;7.40;4.47;;;14.60;1.00;;;;;;5069759;28;20430;-69
2023/06/22 01:40:07;;;;;;;7.10;4.60;;;14.60;1.00;;;;;;5072801;28;20399;-75
2023/06/22 01:42:35;;;;;;;5.03;4.60;;;14.60;1.00;;;;;;5072394;28;20407;-69
2023/06/22 01:45:02;;;;;;;4.77;4.30;;;14.70;1.00;;;;;;5074011;28;20476;-69
2023/06/22 01:47:28;;;;;;;5.60;4.97;;;14.60;1.00;;;;;;5093352;28;20409;-69
2023/06/22 01:49:56;;;;;;;6.17;4.80;;;14.60;1.00;;;;;;5093075;28;20752;-70
2023/06/22 01:52:22;;;;;;;5.77;5.27;;;14.70;1.00;;;;;;5090544;28;20474;-70
2023/06/22 01:54:48;;;;;;;9.27;5.03;;;14.70;1.00;;;;;;5093110;28;20764;-69
2023/06/22 01:57:14;;;;;;;6.83;4.47;;;14.70;1.00;;;;;;5093307;28;20245;-69
2023/06/22 01:59:46;;;;;;;6.03;4.63;;;14.70;1.00;;;;;;5092889;28;20415;-68
2023/06/22 02:02:18;;;;;;;5.90;4.57;;;14.70;1.00;;;;;;5090509;28;20450;-70
2023/06/22 02:05:07;;;;;;;6.93;4.67;;;14.70;1.00;;;;;;5092002;28;20490;-69
2023/06/22 02:08:32;;;;;;;7.00;4.77;;;14.70;1.00;;;;;;5051643;28;20506;-69
2023/06/22 02:11:21;;;;;;;5.80;4.70;;;14.60;1.00;;;;;;5090782;28;20431;-69
2023/06/22 02:13:48;;;;;;;5.90;5.30;;;14.40;1.00;;;;;;5065289;28;20478;-69
2023/06/22 02:16:16;;;;;;;4.93;4.53;;;14.40;1.00;;;;;;5092203;28;20510;-69
2023/06/22 02:19:02;;;;;;;5.20;4.70;;;14.40;1.00;;;;;;5087689;28;20439;-69
2023/06/22 02:22:21;;;;;;;5.97;5.03;;;14.40;1.00;;;;;;5071713;28;20804;-69
2023/06/22 02:25:01;;;;;;;7.47;5.70;;;14.50;1.00;;;;;;5072403;28;20432;-69
2023/06/22 02:27:27;;;;;;;7.30;5.33;;;14.40;1.00;;;;;;5072521;28;20404;-69
2023/06/22 02:29:53;;;;;;;4.97;4.57;;;14.30;1.00;;;;;;5079205;28;20430;-69
2023/06/22 02:32:19;;;;;;;6.10;5.10;;;14.30;1.00;;;;;;5083547;28;20457;-69
2023/06/22 02:34:47;;;;;;;6.00;5.07;;;14.30;1.00;;;;;;5093058;28;20411;-69
2023/06/22 02:37:17;;;;;;;4.60;4.20;;;14.30;1.00;;;;;;5092887;28;20476;-69
2023/06/22 02:39:43;;;;;;;10.43;5.30;;;14.30;1.00;;;;;;5092608;28;20403;-69
2023/06/22 02:42:10;;;;;;;5.90;5.30;;;14.20;1.00;;;;;;5079427;28;20454;-69
2023/06/22 02:44:37;;;;;;;5.70;5.20;;;14.20;1.00;;;;;;5072813;28;20503;-69
2023/06/22 02:47:03;;;;;;;6.67;6.07;;;14.30;1.00;;;;;;5073442;28;20517;-69
2023/06/22 02:49:39;;;;;;;7.53;6.30;;;14.30;1.00;;;;;;5071794;28;20432;-69
2023/06/22 02:52:05;;;;;;;5.27;4.70;;;14.30;1.00;;;;;;5081868;28;20819;-69
2023/06/22 02:54:31;;;;;;;5.20;4.80;;;14.30;1.00;;;;;;5072548;28;20413;-69
2023/06/22 02:56:56;;;;;;;8.90;5.57;;;14.30;1.00;;;;;;5054876;28;20220;-69
2023/06/22 02:59:25;;;;;;;6.03;5.47;;;14.30;1.00;;;;;;5075892;28;20417;-70
2023/06/22 03:01:52;;;;;;;5.57;5.07;;;14.30;1.00;;;;;;5075074;28;20166;-69
2023/06/22 03:04:18;;;;;;;6.60;6.00;;;14.30;1.00;;;;;;5096064;28;20427;-69
2023/06/22 03:06:44;;;;;;;6.73;6.13;;;14.20;1.00;;;;;;5096114;28;20447;-69
2023/06/22 03:09:10;;;;;;;6.27;5.67;;;14.20;1.00;;;;;;5094905;28;20400;-70
2023/06/22 03:11:36;;;;;;;6.40;5.80;;;14.20;1.00;;;;;;5088069;28;20253;-70
2023/06/22 03:14:02;;;;;;;7.70;6.00;;;14.20;1.00;;;;;;5075903;28;20424;-70
2023/06/22 03:17:11;;;;;;;6.40;5.73;;;14.10;1.00;;;;;;5075479;28;20201;-69
2023/06/22 03:19:37;;;;;;;6.80;6.10;;;14.10;1.00;;;;;;5069972;28;20186;-69
2023/06/22 03:22:03;;;;;;;5.87;4.80;;;14.10;1.00;;;;;;5074807;28;20408;-69
2023/06/22 03:24:29;;;;;;;7.13;5.70;;;14.20;1.00;;;;;;5079813;28;20239;-69
2023/06/22 03:27:06;;;;;;;8.30;5.93;;;14.10;1.00;;;;;;5076954;28;20459;-69
2023/06/22 03:29:34;;;;;;;7.17;5.47;;;14.10;1.00;;;;;;5095608;28;20399;-69
2023/06/22 03:32:00;;;;;;;7.80;5.73;;;14.20;1.00;;;;;;5093330;28;20432;-69
2023/06/22 03:34:26;;;;;;;5.87;5.37;;;14.20;1.00;;;;;;5095115;28;20492;-69
2023/06/22 03:36:52;;;;;;;5.83;5.07;;;14.30;1.00;;;;;;5095503;28;20429;-69
2023/06/22 03:39:18;;;;;;;6.20;5.60;;;14.30;1.00;;;;;;5095491;28;20395;-69
2023/06/22 03:41:53;;;;;;;6.23;5.63;;;14.30;1.00;;;;;;5075383;28;20434;-69
2023/06/22 03:44:21;;;;;;;6.73;5.50;;;14.40;1.00;;;;;;5095041;28;20422;-69
2023/06/22 03:46:50;;;;;;;6.80;5.37;;;14.40;1.00;;;;;;5086266;28;20467;-69
2023/06/22 03:49:16;;;;;;;8.83;6.40;;;14.50;1.00;;;;;;5057420;28;20424;-69
2023/06/22 03:51:42;;;;;;;8.10;5.90;;;14.50;1.00;;;;;;5074200;28;20397;-69
2023/06/22 03:54:08;;;;;;;8.00;5.63;;;14.60;1.00;;;;;;5074104;28;20651;-69
2023/06/22 03:56:38;;;;;;;7.97;5.30;;;14.60;1.00;;;;;;5057474;28;20425;-69
2023/06/22 03:59:04;;;;;;;7.73;5.47;;;14.60;1.00;;;;;;5076012;28;20166;-69
2023/06/22 04:01:29;;;;;;;6.47;5.90;;;14.60;1.00;;;;;;5068136;28;21054;-69
2023/06/22 04:03:55;;;;;;;5.30;4.80;;;14.70;1.00;;;;;;5074392;28;20436;-70
2023/06/22 04:06:22;;;;;;;5.57;5.00;;;14.80;1.00;;;;;;5056931;28;20201;-69
2023/06/22 04:08:50;;;;;;;5.67;5.03;;;14.80;1.00;;;;;;5074656;28;20403;-69
2023/06/22 04:11:18;;;;;;;9.03;6.40;;;14.80;1.00;;;;;;5073894;28;20428;-69
2023/06/22 04:13:43;;;;;;;6.33;5.47;;;14.80;1.00;;;;;;5082284;28;20439;-69
2023/06/22 04:16:09;;;;;;;6.00;5.10;;;14.80;1.00;;;;;;5087083;28;20511;-73
2023/06/22 04:18:36;;;;;;;5.00;4.50;;;14.90;1.00;;;;;;5074379;28;20532;-71
2023/06/22 04:21:03;;;;;;;6.47;5.50;;;14.90;1.00;;;;;;5072917;28;20159;-69
2023/06/22 04:23:29;;;;;;;6.80;5.87;;;15.00;1.00;;;;;;5074311;28;20421;-69
2023/06/22 04:25:56;;;;;;;4.80;4.40;;;15.00;1.00;;;;;;5074666;28;20455;-70
2023/06/22 04:28:22;;;;;;;6.03;5.53;;;15.10;1.00;;;;;;5066472;28;20400;-70
2023/06/22 04:30:48;;;;;;;7.40;6.40;;;15.10;1.00;;;;;;5073288;28;20495;-70
2023/06/22 04:33:18;;;;;;;6.23;5.60;;;15.20;1.00;;;;;;5073631;28;20427;-69
2023/06/22 04:38:36;;;;;;;8.63;6.40;;;15.30;1.00;;;;;;5011780;28;21011;-71
2023/06/22 04:41:03;;;;;;;6.63;5.93;;;15.30;1.00;;;;;;5075309;28;20428;-69
2023/06/22 04:43:33;;;;;;;6.97;5.20;;;15.40;1.00;;;;;;5093674;28;20658;-70
2023/06/22 04:46:03;;;;;;;6.23;5.50;;;15.50;1.00;;;;;;5075471;28;20455;-70
2023/06/22 04:51:42;;;;;;;9.40;6.97;;;15.70;14.80;;;;;;5011345;28;20902;-69
2023/06/22 04:54:28;;;;;;;8.63;6.70;;;15.80;25.60;;;;;;5010996;28;20453;-69
2023/06/22 04:56:56;;;;;;;6.57;5.87;;;15.80;36.40;;;;;;5064640;28;20880;-69
2023/06/22 05:00:12;;;;;;;11.50;5.90;;;15.90;52.50;;;;;;5094029;28;20407;-69
2023/06/22 05:02:12;;;;;;;8.13;7.33;;;16.00;63.50;;;;;;5078203;28;20499;-69
2023/06/22 05:04:41;;;;;;;7.53;6.63;;;16.20;77.30;;;;;;5093869;28;20511;-70
2023/06/22 05:07:07;;;;;;;9.40;8.17;;;16.20;89.30;;;;;;5092305;28;20458;-70
2023/06/22 05:09:33;;;;;;;9.50;8.60;;;16.30;94.30;;;;;;5093251;28;20455;-69
2023/06/22 05:12:09;;;;;;;9.17;7.90;;;16.40;94.40;;;;;;5092184;28;20435;-69
2023/06/22 05:14:34;;;;;;;7.87;6.80;;;16.50;94.40;;;;;;5093685;28;20552;-70
2023/06/22 05:17:03;;;;;;;10.03;7.50;;;16.60;99.90;;;;;;5075291;28;20498;-69
2023/06/22 05:19:39;;;;;;;9.27;7.37;;;16.70;99.90;;;;;;5093643;28;20161;-70
2023/06/22 05:22:08;;;;;;;12.60;8.57;;;16.80;99.90;;;;;;5089076;28;20895;-70
2023/06/22 05:24:34;;;;;;;9.60;7.43;;;16.90;99.90;;;;;;5074573;28;20431;-69
2023/06/22 05:27:02;;;;;;;9.43;7.53;;;17.00;99.90;;;;;;5092948;28;20462;-70
2023/06/22 05:29:29;;;;;;;9.83;7.17;;;17.10;99.90;;;;;;5093632;28;20166;-70
2023/06/22 05:31:55;;;;;;;9.47;8.47;;;17.10;99.90;;;;;;5092767;28;20466;-69
2023/06/22 05:34:20;;;;;;;10.90;8.00;;;17.20;99.90;;;;;;5092213;28;20439;-70
2023/06/22 05:36:46;;;;;;;8.60;7.53;;;17.30;99.90;;;;;;5092455;28;20476;-70
2023/06/22 05:39:25;;;;;;;9.70;8.37;;;17.30;99.90;;;;;;5093902;28;20168;-66
2023/06/22 05:46:47;;;;;;;9.13;7.20;;;17.40;99.90;;;;;;5030935;28;20454;-66
2023/06/22 05:49:21;;;;;;;8.20;6.87;;;17.50;99.90;;;;;;4973034;28;20411;-68
2023/06/22 05:52:16;;;;;;;;;;;;;;;;;;;;;
2023/06/22 05:54:42;;;;;;;6.13;5.53;;;17.60;99.90;;;;;;5039040;28;21021;-66
2023/06/22 05:57:11;;;;;;;9.07;5.47;;;17.60;99.90;;;;;;5056626;28;20418;-67
2023/06/22 05:59:36;;;;;;;6.40;5.10;;;17.70;99.90;;;;;;5087134;28;20404;-66
2023/06/22 06:02:02;;;;;;;5.40;4.90;;;17.80;95.30;;;;;;5091508;28;20391;-66
2023/06/22 06:04:29;;;;;;;5.23;4.10;;;17.80;94.90;;;;;;5093119;28;20277;-66
2023/06/22 06:06:55;;;;;;;5.33;4.67;;;17.80;94.90;;;;;;5092980;28;20504;-65
2023/06/22 06:09:23;;;;;;;6.63;4.20;;;17.90;77.80;;;;;;5093282;28;20403;-66
2023/06/22 06:11:52;;;;;;;4.70;4.30;;;17.90;46.90;;;;;;5082985;28;20189;-66
2023/06/22 06:14:25;;;;;;;8.67;4.20;;;18.00;24.30;;;;;;5091646;28;20450;-66
2023/06/22 06:16:52;;;;;;;3.97;3.60;;;18.00;5.40;;;;;;5092571;28;20449;-68
2023/06/22 06:19:18;;;;;;;4.53;3.27;;;18.00;1.00;;;;;;5092554;28;20431;-66
2023/06/22 06:21:44;;;;;;;4.43;3.20;;;18.00;1.00;;;;;;5073819;28;20446;-65
2023/06/22 06:24:10;;;;;;;5.00;3.47;;;18.00;1.00;;;;;;5093023;28;20991;-65
2023/06/22 06:26:51;;;;;;;;;;;;;;;;;;;;;
2023/06/22 06:29:20;;;;;;;7.10;3.10;;;18.30;1.00;;;;;;5076480;28;20449;-66
2023/06/22 06:31:53;;;;;;;3.33;3.13;;;18.50;1.00;;;;;;5090550;28;20573;-66
2023/06/22 06:34:22;;;;;;;5.63;3.70;;;18.60;1.00;;;;;;5085036;28;20459;-67
2023/06/22 06:36:51;;;;;;;4.67;3.70;;;18.70;1.00;;;;;;5082691;28;20488;-69
2023/06/22 06:39:17;;;;;;;4.00;3.70;;;18.80;1.00;;;;;;5077141;28;20424;-69
2023/06/22 06:41:43;;;;;;;6.20;3.17;;;18.90;1.00;;;;;;5093258;28;20873;-69
2023/06/22 06:44:08;;;;;;;4.03;2.97;;;19.00;1.00;;;;;;5095091;28;20185;-69
2023/06/22 06:47:08;;;;;;;;;;;;;;;;;;;;;
2023/06/22 06:50:01;;;;;;;4.10;2.90;;;19.00;1.00;;;;;;5089898;28;20173;-69
2023/06/22 06:52:36;;;;;;;5.13;3.20;;;19.10;1.00;;;;;;5094919;28;20456;-71
2023/06/22 06:55:13;;;;;;;5.50;2.80;;;19.20;1.00;;;;;;5096034;28;20977;-69
2023/06/22 06:57:43;;;;;;;3.30;2.80;;;19.20;1.00;;;;;;5096605;28;20392;-69
2023/06/22 07:00:40;;;;;;;9.00;3.57;;;19.30;1.00;;;;;;5076410;28;20844;-69
2023/06/22 07:03:06;;;;;;;3.30;2.67;;;19.40;1.00;;;;;;5096143;28;20427;-69
2023/06/22 07:05:32;;;;;;;2.67;2.40;;;19.50;1.00;;;;;;5096222;28;20497;-70
2023/06/22 07:07:59;;;;;;;2.97;2.40;;;19.60;1.00;;;;;;5095667;28;20431;-69
2023/06/22 07:10:25;;;;;;;4.30;2.43;;;19.70;1.00;;;;;;5093666;28;20205;-69
2023/06/22 07:12:51;;;;;;;3.03;2.73;;;19.80;1.00;;;;;;5096100;28;20435;-69
2023/06/22 07:15:20;;;;;;;3.07;2.53;;;19.90;1.00;;;;;;5076960;28;20177;-69
2023/06/22 07:17:45;;;;;;;3.20;2.90;;;19.90;1.00;;;;;;5096189;28;20310;-69
2023/06/22 07:20:12;;;;;;;5.20;3.30;;;19.90;99.90;;;;;;5095281;28;20399;-69
2023/06/22 07:22:43;;;;;;;3.83;2.70;;;20.00;99.90;;;;;;5095855;28;20186;-69
2023/06/22 07:25:12;;;;;;;3.47;3.17;;;20.00;99.90;;;;;;5077871;28;20404;-69
2023/06/22 07:27:42;;;;;;;5.20;2.70;;;20.10;99.90;;;;;;5092652;28;20446;-70
2023/06/22 07:30:09;;;;;;;6.20;2.60;;;20.20;99.90;;;;;;5094374;28;20632;-69
2023/06/22 07:32:36;;;;;;;3.17;2.70;;;20.30;99.90;;;;;;5095613;28;20400;-69
2023/06/22 07:35:02;;;;;;;3.30;2.20;;;20.30;99.90;;;;;;5095710;28;20426;-69
2023/06/22 07:41:12;;;;;;;3.63;2.20;;;20.50;99.90;;;;;;5094182;28;20457;-68
2023/06/22 07:43:38;;;;;;;3.07;2.60;;;20.60;99.90;;;;;;5094753;28;20423;-69
2023/06/22 07:46:04;;;;;;;3.10;2.70;;;20.60;99.90;;;;;;5094275;28;20439;-70
2023/06/22 07:48:32;;;;;;;3.33;2.80;;;20.70;99.90;;;;;;5095475;28;20388;-71
2023/06/22 07:51:19;;;;;;;5.87;2.60;;;20.80;99.90;;;;;;5094539;28;20449;-70
2023/06/22 07:53:45;;;;;;;3.83;2.40;;;20.90;99.90;;;;;;5094790;28;20463;-69
2023/06/22 07:56:21;;;;;;;;;;;;;;;;;;;;;
2023/06/22 07:58:48;;;;;;;2.43;2.23;;;21.00;99.90;;;;;;5075160;28;20168;-69
2023/06/22 08:01:19;;;;;;;6.30;2.73;;;21.10;99.90;;;;;;5073996;28;20415;-68
2023/06/22 08:03:45;;;;;;;4.27;2.73;;;21.30;99.90;;;;;;5091887;28;20446;-66
2023/06/22 08:06:11;;;;;;;3.20;2.50;;;21.30;99.90;;;;;;5095033;28;20447;-66
2023/06/22 08:08:37;;;;;;;7.20;2.77;;;21.40;99.90;;;;;;5094970;28;20906;-67
2023/06/22 08:11:15;;;;;;;3.13;2.43;;;21.40;99.90;;;;;;5073540;28;20181;-69
2023/06/22 08:13:40;;;;;;;11.33;3.10;;;21.50;99.90;;;;;;5093424;28;20415;-70
2023/06/22 08:16:07;;;;;;;5.77;2.70;;;21.60;99.90;;;;;;5065007;28;21013;-70
2023/06/22 08:18:39;;;;;;;2.23;1.97;;;21.80;99.90;;;;;;5074571;28;20180;-68
2023/06/22 08:21:05;;;;;;;2.80;2.60;;;21.80;99.90;;;;;;5073105;28;21267;-69
2023/06/22 08:23:31;;;;;;;3.57;2.67;;;22.00;99.90;;;;;;5074358;28;20507;-70
2023/06/22 08:25:57;;;;;;;3.77;2.90;;;22.10;99.90;;;;;;5056239;28;20201;-69
2023/06/22 08:28:23;;;;;;;2.87;2.60;;;22.10;99.90;;;;;;5090111;28;20522;-70
2023/06/22 08:30:49;;;;;;;3.10;2.10;;;22.30;99.90;;;;;;5093787;28;20414;-69
2023/06/22 08:33:14;;;;;;;2.90;2.60;;;22.40;99.90;;;;;;5076639;28;20431;-69
2023/06/22 08:35:43;;;;;;;3.40;2.20;;;22.50;99.90;;;;;;5094463;28;20184;-70
2023/06/22 08:38:10;;;;;;;3.40;2.40;;;22.60;99.90;;;;;;5093953;28;20957;-69
2023/06/22 08:40:36;;;;;;;2.57;2.37;;;22.70;99.90;;;;;;5090704;28;20431;-69
2023/06/22 08:43:02;;;;;;;2.83;2.43;;;22.90;99.90;;;;;;5078388;28;20777;-69
2023/06/22 08:45:28;;;;;;;2.30;2.20;;;23.00;99.90;;;;;;5094265;28;20684;-69
2023/06/22 08:47:54;;;;;;;4.87;2.63;;;23.00;99.90;;;;;;5094206;28;20392;-69
2023/06/22 08:50:20;;;;;;;2.80;2.60;;;23.00;99.90;;;;;;5093609;28;20245;-69
2023/06/22 08:52:46;;;;;;;3.43;2.67;;;23.20;99.90;;;;;;5076123;28;20436;-69
2023/06/22 08:55:14;;;;;;;4.00;3.47;;;23.20;99.90;;;;;;5087514;28;20630;-68
2023/06/22 08:57:39;;;;;;;4.20;2.30;;;23.40;99.90;;;;;;5075568;28;20410;-69
2023/06/22 09:00:17;;;;;;;3.10;2.30;;;23.60;99.90;;;;;;5093307;28;20403;-75
2023/06/22 09:02:44;;;;;;;4.10;2.50;;;23.70;99.90;;;;;;5094215;28;20244;-70
2023/06/22 09:05:33;;;;;;;3.70;2.60;;;23.40;99.90;;;;;;5093704;28;20396;-69
2023/06/22 09:07:59;;;;;;;2.93;2.73;;;23.10;99.90;;;;;;5090906;28;20419;-71
2023/06/22 09:10:25;;;;;;;2.87;2.67;;;22.90;99.90;;;;;;5091027;28;20496;-69
2023/06/22 09:12:51;;;;;;;3.00;2.77;;;22.90;99.90;;;;;;5093910;28;20233;-69
2023/06/22 09:15:18;;;;;;;3.73;2.87;;;23.20;99.90;;;;;;5093207;28;20784;-70
2023/06/22 09:17:45;;;;;;;4.10;2.67;;;23.40;99.90;;;;;;5093466;28;20864;-70
2023/06/22 09:20:17;;;;;;;3.43;2.13;;;23.40;99.90;;;;;;5092908;28;20403;-69
2023/06/22 09:22:43;;;;;;;2.70;2.20;;;23.60;99.90;;;;;;5093493;28;20478;-70
2023/06/22 09:25:09;;;;;;;3.20;2.80;;;23.80;99.90;;;;;;5091207;28;20529;-70
2023/06/22 09:27:35;;;;;;;3.30;3.00;;;24.00;99.90;;;;;;5093760;28;20158;-69
2023/06/22 09:30:01;;;;;;;3.17;2.17;;;24.20;99.90;;;;;;5093417;28;20454;-70
2023/06/22 09:32:27;;;;;;;4.03;3.40;;;24.30;99.90;;;;;;5087184;28;20231;-70
2023/06/22 09:34:53;;;;;;;2.60;2.40;;;24.40;99.90;;;;;;5072727;28;20189;-71
2023/06/22 09:37:22;;;;;;;2.27;2.00;;;24.70;99.90;;;;;;5092397;28;20208;-69
2023/06/22 09:39:48;;;;;;;2.67;2.40;;;25.10;99.90;;;;;;5093338;28;20965;-74
2023/06/22 09:42:13;;;;;;;2.70;2.20;;;25.40;99.90;;;;;;5092573;28;20407;-70
2023/06/22 09:44:39;;;;;;;2.47;2.27;;;25.50;99.90;;;;;;5093364;28;20539;-70
2023/06/22 09:47:05;;;;;;;2.80;2.40;;;25.70;99.90;;;;;;5075351;28;20213;-71
2023/06/22 09:49:32;;;;;;;2.00;1.90;;;26.00;99.90;;;;;;5093016;28;20170;-70
2023/06/22 09:51:58;;;;;;;3.03;2.77;;;26.40;99.90;;;;;;5059597;28;20432;-70
2023/06/22 09:54:23;;;;;;;2.67;2.47;;;26.80;99.90;;;;;;5073068;28;20904;-71
2023/06/22 09:56:49;;;;;;;2.30;1.77;;;27.00;99.90;;;;;;5072161;28;20166;-69
2023/06/22 09:59:15;;;;;;;11.60;2.07;;;27.10;99.90;;;;;;5073112;28;20194;-69
2023/06/22 10:01:40;;;;;;;2.43;2.07;;;27.10;99.90;;;;;;5072184;28;20224;-71
2023/06/22 10:04:06;;;;;;;2.20;2.00;;;27.30;99.90;;;;;;5073195;28;20190;-70
2023/06/22 10:06:32;;;;;;;2.63;2.40;;;27.30;99.90;;;;;;5060619;28;20201;-69
2023/06/22 10:08:58;;;;;;;2.30;2.10;;;27.40;99.90;;;;;;5096772;28;20193;-71
2023/06/22 10:11:28;;;;;;;2.90;1.90;;;27.80;99.90;;;;;;5095930;28;20184;-71
2023/06/22 10:13:55;;;;;;;3.20;2.10;;;28.30;99.90;;;;;;5097181;28;20177;-72
2023/06/22 10:16:20;;;;;;;2.50;2.17;;;28.80;99.90;;;;;;5079457;28;20465;-71
2023/06/22 10:18:46;;;;;;;2.30;2.10;;;29.40;99.90;;;;;;5096375;28;20444;-71
2023/06/22 10:21:12;;;;;;;2.00;1.80;;;29.70;99.90;;;;;;5095693;28;20653;-71
2023/06/22 10:23:37;;;;;;;2.90;2.20;;;29.60;99.90;;;;;;5097095;28;20189;-73
2023/06/22 10:26:03;;;;;;;2.13;1.73;;;29.30;99.90;;;;;;5096827;28;20650;-71
2023/06/22 10:28:29;;;;;;;2.60;2.23;;;29.00;99.90;;;;;;5095726;28;20212;-72
2023/06/22 10:30:54;;;;;;;2.33;2.00;;;29.10;99.90;;;;;;5095957;28;20164;-71
2023/06/22 10:33:20;;;;;;;9.00;2.10;;;29.50;99.90;;;;;;5089168;28;20582;-72
2023/06/22 10:35:46;;;;;;;2.00;1.90;;;29.90;99.90;;;;;;5078257;28;20673;-73
2023/06/22 10:38:11;;;;;;;2.90;2.33;;;29.90;99.90;;;;;;5077712;28;20600;-72
2023/06/22 10:40:39;;;;;;;2.20;1.57;;;30.30;99.90;;;;;;5095895;28;20172;-73
2023/06/22 10:43:05;;;;;;;3.93;2.60;;;30.60;99.90;;;;;;5096318;28;20185;-69
2023/06/22 10:45:30;;;;;;;5.00;2.40;;;30.50;99.90;;;;;;5095737;28;20943;-71
2023/06/22 10:47:56;;;;;;;2.50;1.87;;;30.00;99.90;;;;;;5080480;28;20178;-69
2023/06/22 10:50:23;;;;;;;2.53;2.10;;;29.80;99.90;;;;;;5075542;28;20574;-69
2023/06/22 10:52:49;;;;;;;5.13;3.80;;;30.20;99.90;;;;;;5076119;28;20220;-70
2023/06/22 10:55:15;;;;;;;2.60;2.10;;;30.80;99.90;;;;;;5076393;28;20913;-69
2023/06/22 10:57:42;;;;;;;2.87;2.10;;;30.90;99.90;;;;;;5074976;28;20171;-70
2023/06/22 11:00:09;;;;;;;2.17;2.03;;;31.20;99.90;;;;;;5075419;28;20194;-70
2023/06/22 11:02:34;;;;;;;2.30;2.10;;;31.30;99.90;;;;;;5075983;28;20427;-70
2023/06/22 11:05:00;;;;;;;3.40;2.50;;;31.40;99.90;;;;;;5095178;28;20855;-72
2023/06/22 11:07:28;;;;;;;3.77;2.43;;;31.50;99.90;;;;;;5096352;28;20208;-71
2023/06/22 11:09:54;;;;;;;2.23;2.03;;;31.40;99.90;;;;;;5095913;28;20169;-72
2023/06/22 11:12:20;;;;;;;3.17;2.07;;;31.10;99.90;;;;;;5095424;28;20502;-70
2023/06/22 11:14:46;;;;;;;3.73;2.20;;;31.20;99.90;;;;;;5095500;28;20204;-72
2023/06/22 11:17:11;;;;;;;5.70;1.97;;;31.30;99.90;;;;;;5095237;28;20226;-73
2023/06/22 11:19:37;;;;;;;2.50;2.40;;;31.20;99.90;;;;;;5094741;28;20174;-72
2023/06/22 11:22:03;;;;;;;2.77;2.03;;;31.20;99.90;;;;;;5094880;28;20169;-72
2023/06/22 11:24:28;;;;;;;2.17;1.80;;;31.40;99.90;;;;;;5095893;28;20197;-70
2023/06/22 11:26:54;;;;;;;3.30;2.07;;;31.60;99.90;;;;;;5077660;28;20201;-71
2023/06/22 11:29:20;;;;;;;2.43;2.20;;;31.70;99.90;;;;;;5089039;28;20189;-71
2023/06/22 11:31:46;;;;;;;2.90;2.10;;;31.30;99.90;;;;;;5074738;28;20248;-74
2023/06/22 11:34:11;;;;;;;1.70;1.57;;;30.80;99.90;;;;;;5075526;28;20677;-71
2023/06/22 11:36:37;;;;;;;2.20;2.00;;;30.10;99.90;;;;;;5088517;28;20178;-72
2023/06/22 11:39:03;;;;;;;5.87;2.60;;;29.40;99.90;;;;;;5095549;28;20580;-72
2023/06/22 11:41:29;;;;;;;3.30;2.40;;;29.30;99.90;;;;;;5094521;28;20174;-72
2023/06/22 11:43:54;;;;;;;2.40;2.00;;;29.40;99.90;;;;;;5095126;28;20221;-75
2023/06/22 11:46:20;;;;;;;2.37;2.10;;;29.70;99.90;;;;;;5092124;28;20205;-71
2023/06/22 11:48:46;;;;;;;7.33;2.30;;;29.90;99.90;;;;;;5095716;28;20226;-71
2023/06/22 11:51:11;;;;;;;2.10;1.90;;;30.00;99.90;;;;;;5061767;28;20186;-70
2023/06/22 11:53:37;;;;;;;4.30;2.63;;;29.80;99.90;;;;;;5074649;28;20210;-73
2023/06/22 11:56:03;;;;;;;2.47;1.87;;;29.60;99.90;;;;;;5074660;28;20635;-71
2023/06/22 11:58:29;;;;;;;2.23;2.10;;;29.30;99.90;;;;;;5075182;28;20582;-71
2023/06/22 12:00:54;;;;;;;3.83;2.27;;;29.00;99.90;;;;;;5088788;28;20185;-71
2023/06/22 12:03:21;;;;;;;2.30;2.10;;;29.10;99.90;;;;;;5094549;28;20243;-72
2023/06/22 12:05:47;;;;;;;2.20;2.00;;;29.80;99.90;;;;;;5095018;28;20254;-72
2023/06/22 12:08:13;;;;;;;2.03;1.93;;;30.60;99.90;;;;;;5095254;28;20399;-74
2023/06/22 12:10:39;;;;;;;2.27;2.17;;;30.60;99.90;;;;;;5075481;28;20427;-75
2023/06/22 12:13:05;;;;;;;2.23;2.03;;;29.60;99.90;;;;;;5076363;28;20808;-74
2023/06/22 12:15:30;;;;;;;2.50;2.30;;;29.30;99.90;;;;;;5076256;28;20427;-73
2023/06/22 12:17:56;;;;;;;3.23;2.73;;;29.70;99.90;;;;;;5077183;28;20234;-71
2023/06/22 12:20:22;;;;;;;3.40;2.30;;;30.40;99.90;;;;;;5093903;28;20181;-74
2023/06/22 12:22:49;;;;;;;1.83;1.70;;;30.80;99.90;;;;;;5093232;28;20209;-74
2023/06/22 12:25:15;;;;;;;2.30;1.90;;;30.50;99.90;;;;;;5076497;28;20284;-72
2023/06/22 12:27:41;;;;;;;2.50;2.10;;;29.10;99.90;;;;;;5092417;28;20530;-75
2023/06/22 12:30:07;;;;;;;3.93;1.93;;;28.20;99.90;;;;;;5082918;28;20936;-74
2023/06/22 12:32:32;;;;;;;3.63;1.90;;;28.00;99.90;;;;;;5093088;28;20219;-74
2023/06/22 12:34:59;;;;;;;1.93;1.73;;;28.60;99.90;;;;;;5093321;28;20800;-72
2023/06/22 12:37:24;;;;;;;2.00;1.70;;;29.30;99.90;;;;;;5061132;28;20177;-73
2023/06/22 12:39:50;;;;;;;3.07;1.93;;;29.50;99.90;;;;;;5076484;28;20426;-72
2023/06/22 12:42:16;;;;;;;1.40;1.30;;;29.40;99.90;;;;;;5070293;28;20670;-73
2023/06/22 12:44:42;;;;;;;1.93;1.73;;;29.30;99.90;;;;;;5093589;28;20201;-74
2023/06/22 12:47:08;;;;;;;1.93;1.73;;;29.10;99.90;;;;;;5093021;28;20982;-73
2023/06/22 12:49:35;;;;;;;2.87;1.97;;;28.90;99.90;;;;;;5093810;28;20268;-73
2023/06/22 12:52:01;;;;;;;2.13;1.50;;;28.70;99.90;;;;;;5092362;28;20762;-71
2023/06/22 12:54:29;;;;;;;2.50;1.90;;;29.10;99.90;;;;;;5091916;28;20459;-71
2023/06/22 12:56:55;;;;;;;2.23;1.63;;;29.40;99.90;;;;;;5094175;28;20407;-71
2023/06/22 12:59:20;;;;;;;1.60;1.50;;;29.40;99.90;;;;;;5093593;28;20431;-75
2023/06/22 13:01:46;;;;;;;4.60;2.27;;;29.40;99.90;;;;;;5093328;28;20507;-72
2023/06/22 13:04:14;;;;;;;2.10;1.70;;;28.60;99.90;;;;;;5094032;28;20664;-72
2023/06/22 13:06:41;;;;;;;3.43;1.70;;;28.40;99.90;;;;;;5091384;28;20874;-74
2023/06/22 13:09:06;;;;;;;2.23;1.90;;;28.90;99.90;;;;;;5090472;28;20427;-74
2023/06/22 13:11:32;;;;;;;3.80;2.00;;;29.60;99.90;;;;;;5088744;28;20793;-74
2023/06/22 13:13:58;;;;;;;1.50;1.40;;;30.00;99.90;;;;;;5075774;28;20221;-70
2023/06/22 13:16:23;;;;;;;2.63;1.60;;;30.40;99.90;;;;;;5073337;28;20173;-72
2023/06/22 13:18:49;;;;;;;1.87;1.63;;;30.30;99.90;;;;;;5093951;28;20173;-73
2023/06/22 13:21:15;;;;;;;1.83;1.73;;;30.60;99.90;;;;;;5074767;28;20634;-74